Time;durP1;ratioP1;P1;durP2;ratioP2;P2;SDS_P1;SDS_P2;PMS_P1;PMS_P2;Temp;Humidity;BMP_temperature;BMP_pressure;BME280_temperature;BME280_humidity;BME280_pressure;Samples;Min_cycle;Max_cycle;Signal;HPM_P1;HPM_P2
2022/06/30 00:01:09;;;;;;;11.22;6.20;;;;;;;17.60;75.89;101372.15;1716311;82;21600;-88
2022/06/30 00:03:36;;;;;;;10.65;6.10;;;;;;;17.53;75.92;101371.23;1715130;82;22555;-88
2022/06/30 00:06:03;;;;;;;8.90;6.15;;;;;;;17.47;76.03;101368.09;1733148;82;21046;-89
2022/06/30 00:08:29;;;;;;;9.55;6.83;;;;;;;17.41;76.15;101367.15;1716400;82;21645;-88
2022/06/30 00:11:06;;;;;;;9.58;6.42;;;;;;;17.36;76.30;101357.82;1724230;82;21057;-88
2022/06/30 00:13:25;;;;;;;12.03;6.12;;;;;;;17.31;76.40;101352.90;1715390;83;21095;-88
2022/06/30 00:15:52;;;;;;;12.20;6.85;;;;;;;17.15;76.46;101333.26;1707451;82;22692;-88
2022/06/30 00:18:19;;;;;;;11.60;6.33;;;;;;;17.19;76.63;101344.81;1714062;82;21277;-88
2022/06/30 00:20:45;;;;;;;11.10;7.35;;;;;;;17.16;76.82;101361.66;1716283;82;21126;-88
2022/06/30 00:23:12;;;;;;;13.18;7.00;;;;;;;17.08;76.89;101352.30;1723616;82;21058;-89
2022/06/30 00:25:39;;;;;;;12.07;6.85;;;;;;;17.15;76.95;101358.98;1721285;82;21061;-88
2022/06/30 00:28:06;;;;;;;12.15;6.70;;;;;;;17.13;76.93;101367.39;1712077;82;21767;-88
2022/06/30 00:30:32;;;;;;;9.73;6.30;;;;;;;17.12;77.07;101373.58;1721138;82;21063;-89
2022/06/30 00:32:59;;;;;;;11.93;7.03;;;;;;;17.13;77.07;101368.72;1729171;82;21053;-89
2022/06/30 00:35:29;;;;;;;14.25;6.58;;;;;;;17.09;77.11;101374.00;1732896;82;21097;-89
2022/06/30 00:37:56;;;;;;;10.50;6.80;;;;;;;17.09;77.12;101367.80;1710576;82;21620;-89
2022/06/30 00:40:23;;;;;;;11.05;7.15;;;;;;;17.08;77.23;101367.38;1704087;83;21991;-89
2022/06/30 00:42:50;;;;;;;11.93;7.55;;;;;;;17.08;77.18;101370.91;1703933;82;21078;-89
2022/06/30 00:45:16;;;;;;;11.88;7.35;;;;;;;17.07;77.22;101370.44;1704045;82;21093;-89
2022/06/30 00:47:50;;;;;;;11.73;7.28;;;;;;;17.01;77.25;101350.45;1722087;82;21153;-88
2022/06/30 00:50:18;;;;;;;;;;;;;;;17.07;77.30;101358.47;1715153;82;21033;-89
2022/06/30 00:52:44;;;;;;;10.00;7.08;;;;;;;17.06;77.34;101362.44;1715962;82;22687;-88
2022/06/30 00:55:11;;;;;;;12.53;7.53;;;;;;;17.05;77.44;101354.91;1703803;82;21555;-89
2022/06/30 00:57:38;;;;;;;10.70;7.70;;;;;;;17.04;77.38;101346.92;1718433;82;21081;-88
2022/06/30 01:00:08;;;;;;;11.20;7.00;;;;;;;17.04;77.48;101349.58;1712663;82;21123;-88
2022/06/30 01:02:35;;;;;;;10.35;7.35;;;;;;;17.01;77.49;101346.91;1713766;82;21096;-88
2022/06/30 01:05:02;;;;;;;9.45;6.50;;;;;;;16.98;77.53;101353.08;1703970;82;21748;-89
2022/06/30 01:07:28;;;;;;;13.55;7.72;;;;;;;16.96;77.60;101353.95;1703998;82;21070;-88
2022/06/30 01:12:47;;;;;;;8.38;6.60;;;;;;;16.92;77.73;101349.05;1729920;82;21076;-88
2022/06/30 01:15:16;;;;;;;13.18;7.15;;;;;;;16.90;77.77;101354.34;1737192;82;21021;-88
2022/06/30 01:17:44;;;;;;;11.15;6.83;;;;;;;16.89;77.80;101351.67;1707316;82;22609;-88
2022/06/30 01:20:11;;;;;;;10.45;6.75;;;;;;;16.88;77.83;101341.48;1703886;82;21041;-88
2022/06/30 01:22:38;;;;;;;11.15;6.72;;;;;;;16.87;77.84;101331.73;1724688;82;21069;-88
2022/06/30 01:25:06;;;;;;;13.70;6.47;;;;;;;16.90;77.86;101332.19;1703545;82;21068;-89
2022/06/30 01:27:32;;;;;;;12.65;7.22;;;;;;;16.94;77.99;101338.42;1702877;82;21062;-88
2022/06/30 01:29:59;;;;;;;7.47;5.85;;;;;;;16.96;77.92;101340.66;1703960;82;21758;-88
2022/06/30 01:32:28;;;;;;;10.35;6.70;;;;;;;16.96;77.87;101351.30;1703303;82;21520;-87
2022/06/30 01:34:54;;;;;;;10.32;6.62;;;;;;;16.95;77.76;101344.18;1703366;82;21575;-88
2022/06/30 01:37:22;;;;;;;11.73;6.58;;;;;;;16.92;77.82;101341.52;1703483;82;21160;-88
2022/06/30 01:39:49;;;;;;;14.58;6.80;;;;;;;16.93;77.87;101333.97;1708101;82;21053;-88
2022/06/30 01:42:16;;;;;;;13.62;6.95;;;;;;;16.89;77.81;101335.30;1717963;82;21756;-87
2022/06/30 01:44:43;;;;;;;9.58;6.58;;;;;;;16.88;77.81;101337.94;1723620;82;21045;-87
2022/06/30 01:47:10;;;;;;;14.95;6.72;;;;;;;16.88;77.89;101334.83;1714968;82;21641;-88
2022/06/30 01:49:37;;;;;;;12.00;6.20;;;;;;;16.87;77.85;101337.47;1696997;82;21164;-87
2022/06/30 01:52:08;;;;;;;9.98;6.20;;;;;;;16.87;77.87;101339.72;1717644;82;21593;-89
2022/06/30 01:54:36;;;;;;;9.75;6.72;;;;;;;16.87;77.90;101342.79;1718921;82;21833;-89
2022/06/30 01:57:04;;;;;;;9.85;6.90;;;;;;;16.86;77.85;101353.88;1675956;85;21154;-88
2022/06/30 01:59:31;;;;;;;10.55;6.17;;;;;;;16.84;77.80;101352.09;1673740;84;21307;-88
2022/06/30 02:01:58;;;;;;;10.50;6.55;;;;;;;16.84;77.80;101350.76;1708896;82;21210;-88
2022/06/30 02:07:10;;;;;;;13.62;7.10;;;;;;;16.80;77.85;101352.47;1717081;82;21790;-90
2022/06/30 02:09:36;;;;;;;9.98;6.53;;;;;;;16.81;77.87;101358.66;1708330;82;21046;-90
2022/06/30 02:14:49;;;;;;;13.03;7.37;;;;;;;16.81;77.83;101359.99;1719502;82;21745;-88
2022/06/30 02:17:15;;;;;;;14.47;8.03;;;;;;;16.80;77.92;101361.77;1710256;83;21137;-88
2022/06/30 02:19:42;;;;;;;14.83;7.40;;;;;;;16.83;77.86;101356.94;1742191;81;22590;-88
2022/06/30 02:22:09;;;;;;;10.93;7.10;;;;;;;16.85;77.90;101357.84;1739224;81;20998;-88
2022/06/30 02:24:36;;;;;;;12.47;7.03;;;;;;;16.84;77.79;101357.41;1738780;81;21551;-89
2022/06/30 02:27:03;;;;;;;10.43;6.47;;;;;;;16.83;77.87;101357.83;1739732;81;21561;-88
2022/06/30 02:29:30;;;;;;;10.10;6.70;;;;;;;16.86;77.85;101356.53;1738953;81;21051;-88
2022/06/30 02:31:56;;;;;;;10.95;7.17;;;;;;;16.90;77.95;101354.80;1739420;81;21754;-89
2022/06/30 02:34:23;;;;;;;11.78;6.85;;;;;;;16.92;78.02;101351.70;1712275;83;21574;-88
2022/06/30 02:36:50;;;;;;;10.80;7.37;;;;;;;16.98;78.09;101353.52;1745464;81;21050;-88
2022/06/30 02:39:17;;;;;;;12.00;7.12;;;;;;;17.01;78.11;101346.91;1697596;83;21117;-89
2022/06/30 02:41:43;;;;;;;11.85;7.12;;;;;;;17.06;78.15;101353.13;1749251;81;21048;-88
2022/06/30 02:44:10;;;;;;;9.78;7.17;;;;;;;17.14;78.24;101362.53;1713736;83;21862;-88
2022/06/30 02:46:37;;;;;;;12.82;8.05;;;;;;;17.20;78.15;101354.59;1725438;81;22226;-88
2022/06/30 02:49:03;;;;;;;11.78;7.40;;;;;;;17.23;78.11;101360.83;1721203;81;21064;-88
2022/06/30 02:51:33;;;;;;;13.10;7.20;;;;;;;17.31;78.24;101362.21;1745531;81;21531;-89
2022/06/30 02:54:00;;;;;;;13.68;7.58;;;;;;;17.36;78.16;101367.55;1733991;81;21005;-89
2022/06/30 02:56:27;;;;;;;13.38;7.17;;;;;;;17.46;78.25;101376.06;1711447;83;21993;-88
2022/06/30 02:58:54;;;;;;;12.45;7.35;;;;;;;17.57;78.17;101382.34;1730951;82;21062;-88
2022/06/30 03:01:21;;;;;;;12.73;7.80;;;;;;;17.67;78.10;101392.61;1731295;81;21105;-88
2022/06/30 03:03:47;;;;;;;8.48;6.00;;;;;;;17.76;78.03;101385.13;1740697;81;21232;-88
2022/06/30 03:06:14;;;;;;;10.82;7.03;;;;;;;17.84;77.81;101376.30;1721967;81;21036;-88
2022/06/30 03:08:44;;;;;;;10.78;6.22;;;;;;;17.91;77.72;101370.58;1721830;81;22734;-88
2022/06/30 03:11:18;;;;;;;12.15;7.20;;;;;;;18.03;77.69;101369.73;1722209;81;21083;-88
2022/06/30 03:13:44;;;;;;;10.58;6.83;;;;;;;18.14;77.57;101368.00;1720769;81;21372;-88
2022/06/30 03:16:12;;;;;;;10.50;7.03;;;;;;;18.27;77.43;101367.61;1742674;81;21206;-88
2022/06/30 03:18:39;;;;;;;13.72;7.10;;;;;;;18.36;77.29;101364.09;1721929;81;21083;-88
2022/06/30 03:21:07;;;;;;;10.58;7.00;;;;;;;18.44;77.12;101364.53;1742585;81;21769;-89
2022/06/30 03:23:34;;;;;;;9.08;6.25;;;;;;;18.48;77.00;101371.22;1735350;81;21033;-89
2022/06/30 03:26:01;;;;;;;13.72;6.92;;;;;;;18.51;77.01;101361.91;1728180;81;21079;-89
2022/06/30 03:28:28;;;;;;;12.68;7.25;;;;;;;18.67;76.90;101376.14;1720251;81;21144;-88
2022/06/30 03:30:54;;;;;;;11.28;7.28;;;;;;;18.75;76.71;101384.61;1721771;81;22352;-88
2022/06/30 03:33:21;;;;;;;11.15;6.40;;;;;;;18.84;76.69;101384.66;1721723;81;22497;-88
2022/06/30 03:35:48;;;;;;;9.98;6.67;;;;;;;18.98;76.65;101386.44;1721320;82;21083;-88
2022/06/30 03:38:15;;;;;;;12.50;6.28;;;;;;;19.10;76.50;101385.55;1721793;81;21109;-88
2022/06/30 03:40:41;;;;;;;16.25;7.42;;;;;;;19.19;76.24;101397.10;1731133;81;21045;-88
2022/06/30 03:43:08;;;;;;;13.62;6.50;;;;;;;19.30;76.11;101402.45;1733456;81;21030;-88
2022/06/30 03:45:35;;;;;;;7.28;5.40;;;;;;;19.41;76.01;101411.33;1718085;83;21848;-88
2022/06/30 03:48:06;;;;;;;12.13;5.62;;;;;;;19.53;75.88;101412.21;1729788;81;21075;-88
2022/06/30 03:50:34;;;;;;;9.25;5.58;;;;;;;19.70;75.78;101417.52;1740878;81;21053;-88
2022/06/30 03:53:00;;;;;;;12.13;5.75;;;;;;;19.91;75.71;101429.51;1731921;81;21296;-88
2022/06/30 03:55:27;;;;;;;6.75;4.90;;;;;;;20.13;75.43;101439.69;1732670;81;21122;-88
2022/06/30 03:57:55;;;;;;;10.35;5.47;;;;;;;20.30;74.93;101450.32;1745921;81;21878;-89
2022/06/30 04:00:23;;;;;;;10.40;5.60;;;;;;;20.38;74.61;101447.61;1750741;81;21033;-88
2022/06/30 04:02:49;;;;;;;10.53;5.67;;;;;;;20.50;74.64;101440.87;1699683;83;21058;-88
2022/06/30 04:05:18;;;;;;;11.45;6.10;;;;;;;21.22;75.64;101442.69;1713026;82;21089;-88
2022/06/30 04:07:45;;;;;;;7.87;5.72;;;;;;;21.76;72.80;101448.47;1733366;82;21020;-88
2022/06/30 04:10:13;;;;;;;11.53;5.17;;;;;;;21.76;72.80;101448.47;1724562;82;21942;-86
2022/06/30 04:12:40;;;;;;;13.15;5.90;;;;;;;21.76;72.35;101442.23;1732570;82;21118;-88
2022/06/30 04:15:12;;;;;;;8.95;5.92;;;;;;;21.69;71.89;101438.71;1711888;83;21070;-92
2022/06/30 04:18:48;;;;;;;8.33;5.85;;;;;;;21.53;71.40;101452.27;1712722;83;21630;-92
2022/06/30 04:25:17;;;;;;;13.40;7.42;;;;;;;21.26;71.60;101452.00;1713570;83;21114;-96
2022/06/30 04:28:04;;;;;;;11.65;6.50;;;;;;;21.31;71.72;101447.97;1682811;84;21040;-94
2022/06/30 04:35:11;;;;;;;12.07;5.70;;;;;;;21.64;71.76;101459.30;1768097;80;21324;-94
2022/06/30 05:01:47;;;;;;;11.38;6.55;;;;;;;23.22;69.11;101473.92;1717632;81;21510;-92
2022/06/30 05:04:29;;;;;;;14.55;6.50;;;;;;;23.82;68.69;101476.49;1750268;80;21095;-92
2022/06/30 05:06:56;;;;;;;11.53;5.55;;;;;;;24.08;67.74;101490.34;1757177;81;21088;-92
2022/06/30 05:13:15;;;;;;;14.60;6.22;;;;;;;23.95;66.59;101494.63;1764951;80;21070;-92
2022/06/30 05:15:45;;;;;;;11.48;6.80;;;;;;;23.90;66.62;101490.25;1755049;80;21054;-92
2022/06/30 05:18:12;;;;;;;10.32;6.12;;;;;;;23.86;66.56;101489.42;1751520;80;21058;-92
2022/06/30 05:28:12;;;;;;;6.95;4.80;;;;;;;23.86;66.04;101500.17;1784281;80;21062;-95
2022/06/30 05:30:41;;;;;;;12.65;6.00;;;;;;;23.86;65.96;101500.17;1785053;80;21666;-92
2022/06/30 05:37:07;;;;;;;8.70;4.22;;;;;;;23.85;65.81;101495.23;1770491;80;21395;-91
2022/06/30 05:39:34;;;;;;;8.43;4.28;;;;;;;23.77;65.46;101490.43;1754055;80;22483;-90
2022/06/30 05:42:13;;;;;;;6.20;3.98;;;;;;;23.68;65.44;101482.53;1761636;80;21796;-96
2022/06/30 05:44:40;;;;;;;7.83;3.80;;;;;;;23.61;65.42;101481.77;1787649;78;21070;-91
2022/06/30 05:47:08;;;;;;;10.63;3.87;;;;;;;23.50;65.40;101485.10;1738317;81;21113;-91
2022/06/30 05:50:35;;;;;;;7.60;3.95;;;;;;;23.45;65.50;101477.56;1780830;80;21591;-94
2022/06/30 05:53:05;;;;;;;8.03;3.40;;;;;;;23.44;65.57;101485.18;1785301;79;21794;-94
2022/06/30 05:55:49;;;;;;;7.87;3.42;;;;;;;23.43;65.69;101479.39;1751872;80;21042;-94
2022/06/30 05:58:19;;;;;;;7.65;3.58;;;;;;;23.46;65.68;101479.32;1725411;80;21998;-91
2022/06/30 06:01:13;;;;;;;7.30;3.37;;;;;;;23.53;65.63;101482.34;1754742;81;21008;-94
2022/06/30 06:03:40;;;;;;;7.70;3.20;;;;;;;23.58;65.60;101477.78;1788216;79;21052;-92
2022/06/30 06:06:18;;;;;;;7.20;3.35;;;;;;;23.62;65.51;101466.52;1778736;78;21874;-95
2022/06/30 06:08:45;;;;;;;8.58;3.45;;;;;;;23.63;65.36;101475.00;1782603;80;21003;-92
2022/06/30 06:11:12;;;;;;;7.35;3.77;;;;;;;23.57;65.27;101475.99;1755212;80;21046;-92
2022/06/30 06:13:39;;;;;;;8.48;3.80;;;;;;;23.49;65.07;101460.00;1771918;79;21042;-95
2022/06/30 06:20:06;;;;;;;13.53;3.62;;;;;;;23.29;65.04;101425.88;1783859;80;21094;-91
2022/06/30 06:22:41;;;;;;;8.58;3.52;;;;;;;23.13;65.34;101386.33;1758306;80;21034;-91
2022/06/30 06:29:23;;;;;;;12.07;4.50;;;;;;;23.05;65.38;101367.66;1777966;80;21035;-94
2022/06/30 06:31:50;;;;;;;8.85;4.33;;;;;;;22.94;65.12;101325.31;1779912;80;21085;-91
2022/06/30 06:34:17;;;;;;;10.00;4.37;;;;;;;22.60;65.16;101297.69;1761078;80;21771;-92
2022/06/30 06:36:43;;;;;;;7.05;5.00;;;;;;;22.33;65.35;101276.20;1771838;80;21043;-91
2022/06/30 06:39:11;;;;;;;8.63;5.17;;;;;;;22.06;65.76;101277.01;1771959;80;21114;-91
2022/06/30 06:45:37;;;;;;;8.58;5.67;;;;;;;21.68;66.58;101255.64;1782245;78;21110;-90
2022/06/30 06:48:12;;;;;;;9.23;5.87;;;;;;;21.57;67.08;101248.62;1749408;80;21714;-92
2022/06/30 06:50:39;;;;;;;7.97;5.22;;;;;;;21.53;67.28;101250.02;1791944;78;21050;-94
2022/06/30 06:53:06;;;;;;;14.05;5.53;;;;;;;21.61;67.77;101231.64;1766107;78;21039;-92
2022/06/30 06:55:32;;;;;;;10.20;4.78;;;;;;;21.67;67.62;101218.15;1749433;81;21070;-91
2022/06/30 06:57:59;;;;;;;8.55;4.70;;;;;;;21.79;68.11;101236.75;1771833;80;21066;-94
2022/06/30 07:00:26;;;;;;;9.65;4.25;;;;;;;22.03;68.07;101255.59;1785250;80;21837;-93
2022/06/30 07:02:53;;;;;;;9.93;3.80;;;;;;;22.21;67.78;101258.94;1781658;78;21039;-95
2022/06/30 07:05:20;;;;;;;6.65;4.45;;;;;;;22.31;67.78;101260.13;1742929;80;21686;-91
2022/06/30 07:07:50;;;;;;;10.98;5.08;;;;;;;22.36;67.58;101247.13;1730785;81;21210;-91
2022/06/30 07:10:17;;;;;;;12.93;4.70;;;;;;;22.36;67.40;101225.66;1729227;82;21422;-90
2022/06/30 07:12:44;;;;;;;7.25;4.25;;;;;;;22.24;67.40;101192.74;1729459;82;21482;-90
2022/06/30 07:15:12;;;;;;;6.50;4.70;;;;;;;22.13;67.49;101190.69;1729169;82;21541;-91
2022/06/30 07:17:43;;;;;;;5.67;4.15;;;;;;;22.02;67.80;101169.41;1741314;81;22181;-91
2022/06/30 07:20:13;;;;;;;7.22;4.28;;;;;;;21.95;67.60;101142.26;1759799;81;21118;-90
2022/06/30 07:22:39;;;;;;;5.22;3.80;;;;;;;21.80;67.91;101137.14;1748343;81;21028;-90
2022/06/30 07:25:37;;;;;;;;;;;;;;;;;;;;;
2022/06/30 07:27:44;;;;;;;9.13;4.87;;;;;;;21.83;68.50;101150.47;1730494;82;21095;-92
2022/06/30 07:30:11;;;;;;;5.85;3.33;;;;;;;21.91;68.41;101141.42;1757290;81;21016;-92
2022/06/30 07:32:38;;;;;;;8.30;4.20;;;;;;;21.91;68.39;101119.98;1713471;81;21074;-88
2022/06/30 07:37:40;;;;;;;9.38;3.55;;;;;;;22.07;68.28;101144.75;1754179;81;24518;-92
2022/06/30 07:40:17;;;;;;;5.40;3.60;;;;;;;22.07;68.20;101159.93;1724051;83;21034;-91
2022/06/30 07:42:44;;;;;;;6.75;4.10;;;;;;;22.17;68.39;101157.55;1724210;83;22455;-92
2022/06/30 07:45:12;;;;;;;9.78;4.10;;;;;;;22.35;68.33;101165.75;1736589;81;21059;-90
2022/06/30 07:47:46;;;;;;;6.17;3.70;;;;;;;22.55;67.93;101158.70;1747200;81;21070;-91
2022/06/30 07:50:14;;;;;;;10.40;3.67;;;;;;;22.59;67.74;101166.25;1697183;83;21119;-91
2022/06/30 07:56:21;;;;;;;5.35;3.55;;;;;;;22.83;67.28;101188.59;1691181;83;22579;-89
2022/06/30 07:58:47;;;;;;;7.25;4.15;;;;;;;23.02;67.02;101190.93;1684465;84;21082;-89
2022/06/30 08:01:14;;;;;;;8.90;3.87;;;;;;;23.07;66.80;101185.93;1686270;84;21138;-94
2022/06/30 08:03:41;;;;;;;6.35;3.30;;;;;;;23.23;66.70;101190.98;1694326;83;21620;-90
2022/06/30 08:06:25;;;;;;;3.58;3.10;;;;;;;23.31;66.51;101210.97;1668651;84;21572;-91
2022/06/30 08:08:52;;;;;;;5.47;3.25;;;;;;;23.54;66.52;101224.82;1665812;86;22882;-89
2022/06/30 08:11:19;;;;;;;4.60;3.15;;;;;;;23.75;66.15;101234.68;1643833;84;22356;-92
2022/06/30 08:14:14;;;;;;;5.95;3.33;;;;;;;23.91;65.97;101251.38;1655376;83;21071;-93
2022/06/30 08:16:41;;;;;;;4.78;3.50;;;;;;;24.06;65.71;101258.65;1678092;85;21180;-88
2022/06/30 08:19:08;;;;;;;4.53;3.30;;;;;;;24.23;65.34;101258.26;1675060;84;21073;-89
2022/06/30 08:21:35;;;;;;;6.10;3.33;;;;;;;24.38;65.17;101260.13;1695185;84;21738;-93
2022/06/30 08:24:02;;;;;;;5.85;3.50;;;;;;;24.65;64.97;101257.27;1702737;83;22059;-90
2022/06/30 08:26:40;;;;;;;7.12;3.40;;;;;;;24.91;64.66;101262.41;1696932;83;21082;-90
2022/06/30 08:29:08;;;;;;;6.05;3.12;;;;;;;25.20;64.27;101264.33;1685213;84;21095;-90
2022/06/30 08:31:35;;;;;;;4.20;2.85;;;;;;;25.38;63.46;101262.98;1682148;84;21098;-90
2022/06/30 08:34:03;;;;;;;8.63;3.45;;;;;;;25.55;63.38;101262.02;1680945;84;21798;-89
2022/06/30 08:36:30;;;;;;;4.67;2.92;;;;;;;25.70;62.59;101263.38;1716134;83;21071;-88
2022/06/30 08:38:57;;;;;;;6.12;2.75;;;;;;;25.69;62.43;101266.11;1745469;82;21102;-89
2022/06/30 08:44:09;;;;;;;5.92;2.85;;;;;;;26.02;62.05;101269.64;1735267;82;21085;-89
2022/06/30 08:46:38;;;;;;;5.53;3.40;;;;;;;26.22;61.57;101269.47;1702438;82;21765;-90
2022/06/30 08:49:05;;;;;;;12.88;3.25;;;;;;;26.38;61.28;101265.34;1712080;82;21043;-90
2022/06/30 08:51:34;;;;;;;10.08;3.22;;;;;;;26.52;60.58;101259.03;1744637;82;21046;-90
2022/06/30 08:54:01;;;;;;;9.15;3.22;;;;;;;26.48;60.14;101256.47;1732978;82;21080;-90
2022/06/30 08:56:34;;;;;;;11.22;3.35;;;;;;;26.54;59.72;101257.61;1743104;82;21019;-89
2022/06/30 08:59:03;;;;;;;5.08;4.58;;;;;;;26.53;59.75;101261.26;1742462;82;21744;-88
2022/06/30 09:01:29;;;;;;;6.25;3.12;;;;;;;26.60;59.75;101255.20;1722089;81;21123;-88
2022/06/30 09:03:59;;;;;;;4.12;2.98;;;;;;;26.73;59.39;101254.75;1733329;82;21060;-89
2022/06/30 09:06:26;;;;;;;3.83;2.67;;;;;;;26.84;59.01;101246.73;1714843;83;21138;-88
2022/06/30 09:08:53;;;;;;;8.30;2.80;;;;;;;26.88;58.45;101242.97;1700198;81;21082;-89
2022/06/30 09:11:20;;;;;;;7.75;2.47;;;;;;;27.02;58.32;101250.61;1696260;83;22565;-88
2022/06/30 09:13:50;;;;;;;6.47;2.33;;;;;;;27.14;57.83;101246.09;1740980;82;21031;-89
2022/06/30 09:16:20;;;;;;;5.83;3.00;;;;;;;27.08;56.94;101247.20;1719378;81;21050;-88
2022/06/30 09:18:47;;;;;;;6.45;2.70;;;;;;;26.92;56.55;101229.80;1745270;81;21109;-90
2022/06/30 09:21:16;;;;;;;7.75;2.62;;;;;;;26.82;56.45;101242.72;1737815;82;21129;-90
2022/06/30 09:23:45;;;;;;;4.40;2.67;;;;;;;26.80;56.48;101250.48;1745241;82;22597;-91
2022/06/30 09:26:16;;;;;;;8.60;2.75;;;;;;;26.88;56.46;101253.34;1676595;83;21138;-91
2022/06/30 09:28:54;;;;;;;5.12;2.70;;;;;;;27.03;56.32;101251.91;1733525;82;21039;-90
2022/06/30 09:31:34;;;;;;;6.95;3.00;;;;;;;27.20;55.81;101256.70;1725057;81;21070;-90
2022/06/30 09:34:19;;;;;;;6.55;3.00;;;;;;;27.27;55.46;101258.73;1682068;83;21117;-90
2022/06/30 09:36:48;;;;;;;5.10;2.75;;;;;;;27.50;55.25;101266.02;1743113;81;21765;-89
2022/06/30 09:39:16;;;;;;;8.13;3.17;;;;;;;27.54;54.74;101259.06;1750097;81;21062;-90
2022/06/30 09:41:43;;;;;;;8.30;2.85;;;;;;;27.69;54.67;101263.02;1719474;81;21113;-89
2022/06/30 09:44:22;;;;;;;7.92;3.75;;;;;;;27.82;54.51;101274.25;1743446;81;21078;-89
2022/06/30 09:47:01;;;;;;;5.65;2.60;;;;;;;27.98;54.28;101268.26;1751127;81;21387;-89
2022/06/30 09:49:44;;;;;;;7.00;3.30;;;;;;;28.19;54.06;101271.92;1751231;81;21757;-90
2022/06/30 09:52:23;;;;;;;3.87;2.77;;;;;;;28.36;53.73;101278.01;1737162;81;21035;-91
2022/06/30 09:55:39;;;;;;;6.17;3.17;;;;;;;28.35;53.47;101270.84;1728826;81;21110;-91
2022/06/30 09:58:06;;;;;;;2.98;2.72;;;;;;;28.41;53.39;101279.58;1738043;81;21133;-91
2022/06/30 10:00:49;;;;;;;6.72;3.50;;;;;;;28.48;53.23;101271.62;1747012;81;21106;-89
2022/06/30 10:03:17;;;;;;;7.22;3.27;;;;;;;28.60;53.15;101278.38;1716084;81;21825;-88
2022/06/30 10:05:47;;;;;;;5.33;2.87;;;;;;;28.85;52.96;101286.36;1749460;81;21632;-89
2022/06/30 10:08:14;;;;;;;7.67;3.15;;;;;;;28.93;52.48;101264.83;1750394;81;21105;-89
2022/06/30 10:10:42;;;;;;;4.92;3.30;;;;;;;29.27;52.32;101281.86;1754004;81;21059;-88
2022/06/30 10:13:14;;;;;;;3.35;3.00;;;;;;;29.43;51.58;101274.80;1738427;81;21027;-89
2022/06/30 10:15:45;;;;;;;6.08;3.02;;;;;;;29.54;51.48;101272.05;1739398;81;21899;-87
2022/06/30 10:18:10;;;;;;;6.30;3.47;;;;;;;29.63;51.15;101268.91;1746985;81;21073;-89
2022/06/30 10:20:38;;;;;;;5.40;3.37;;;;;;;29.74;51.17;101271.16;1741192;81;21078;-95
2022/06/30 10:23:08;;;;;;;6.33;3.45;;;;;;;29.93;51.09;101265.73;1731896;82;21555;-89
2022/06/30 10:25:36;;;;;;;4.28;3.05;;;;;;;30.26;50.87;101269.11;1726357;83;21070;-90
2022/06/30 10:28:04;;;;;;;5.83;3.22;;;;;;;30.43;50.32;101271.44;1747000;81;21716;-88
2022/06/30 10:30:37;;;;;;;5.10;3.45;;;;;;;30.51;49.86;101265.61;1737156;81;21295;-90
2022/06/30 10:33:14;;;;;;;5.92;3.40;;;;;;;30.65;49.96;101265.39;1726726;81;21079;-89
2022/06/30 10:35:46;;;;;;;3.20;2.75;;;;;;;30.73;49.54;101267.25;1716684;82;21160;-89
2022/06/30 10:38:36;;;;;;;5.70;3.08;;;;;;;30.54;49.19;101260.49;1714494;81;21056;-89
2022/06/30 10:41:13;;;;;;;4.08;2.47;;;;;;;30.48;48.67;101262.17;1726117;82;22717;-90
2022/06/30 10:44:08;;;;;;;4.25;2.40;;;;;;;30.19;47.97;101263.12;1727160;82;21086;-89
2022/06/30 10:46:57;;;;;;;4.47;2.40;;;;;;;29.85;47.57;101260.69;1730292;81;21525;-91
2022/06/30 10:49:32;;;;;;;4.00;2.40;;;;;;;29.76;47.71;101257.05;1737019;81;21537;-91
2022/06/30 10:52:19;;;;;;;4.12;2.20;;;;;;;29.77;47.39;101262.41;1736880;82;21067;-88
2022/06/30 10:54:46;;;;;;;4.12;2.10;;;;;;;29.51;46.83;101251.39;1729152;81;21762;-89
2022/06/30 10:57:13;;;;;;;5.37;2.20;;;;;;;29.27;46.12;101257.45;1736963;81;21192;-90
2022/06/30 10:59:43;;;;;;;3.75;2.40;;;;;;;29.14;45.31;101257.61;1731100;81;21081;-88
2022/06/30 11:02:18;;;;;;;4.00;1.90;;;;;;;29.04;45.19;101257.97;1736515;82;21032;-92
2022/06/30 11:05:24;;;;;;;3.55;2.10;;;;;;;28.92;45.16;101252.21;1743740;82;21043;-93
2022/06/30 11:07:52;;;;;;;3.83;2.15;;;;;;;28.82;45.02;101256.67;1726020;82;21723;-89
2022/06/30 11:10:18;;;;;;;5.20;2.27;;;;;;;28.69;44.93;101248.67;1724013;82;21524;-89
2022/06/30 11:12:51;;;;;;;7.35;2.40;;;;;;;28.74;45.13;101249.81;1742830;82;21081;-88
2022/06/30 11:15:18;;;;;;;3.00;2.40;;;;;;;28.64;44.90;101243.91;1738545;82;21067;-92
2022/06/30 11:17:44;;;;;;;3.52;2.10;;;;;;;28.49;45.34;101241.34;1744872;81;21612;-89
2022/06/30 11:20:43;;;;;;;3.33;2.58;;;;;;;28.67;45.75;101240.60;1738865;81;21200;-94
2022/06/30 11:23:10;;;;;;;2.80;2.12;;;;;;;28.89;45.71;101235.14;1739102;81;21549;-89
2022/06/30 11:28:23;;;;;;;2.42;2.22;;;;;;;29.21;45.16;101222.50;1742426;82;21023;-89
2022/06/30 11:30:49;;;;;;;3.52;2.20;;;;;;;29.04;45.06;101224.09;1726190;82;21023;-91
2022/06/30 11:33:16;;;;;;;4.50;2.33;;;;;;;28.92;44.95;101223.75;1732219;82;21765;-87
2022/06/30 11:35:43;;;;;;;3.90;2.50;;;;;;;28.81;45.21;101218.80;1729114;82;21038;-92
2022/06/30 11:38:32;;;;;;;8.33;2.80;;;;;;;28.75;44.66;101210.47;1725388;83;21082;-91
2022/06/30 11:44:15;;;;;;;5.17;2.67;;;;;;;28.53;44.63;101205.58;1726969;81;21096;-87
2022/06/30 11:46:58;;;;;;;4.67;2.72;;;;;;;28.46;44.98;101204.46;1747149;81;21780;-90
2022/06/30 11:49:49;;;;;;;4.22;3.00;;;;;;;28.54;44.96;101199.23;1716109;81;27698;-87
2022/06/30 11:52:31;;;;;;;2.77;2.58;;;;;;;28.54;45.09;101198.75;1749229;81;21153;-89
2022/06/30 11:55:17;;;;;;;3.35;2.67;;;;;;;28.56;45.41;101194.62;1750420;81;21110;-91
2022/06/30 11:57:42;;;;;;;6.03;2.85;;;;;;;28.74;45.51;101199.24;1750498;81;21757;-92
2022/06/30 12:00:20;;;;;;;5.60;2.65;;;;;;;28.82;45.51;101186.23;1713115;81;21770;-88
2022/06/30 12:02:47;;;;;;;4.80;3.52;;;;;;;28.92;45.35;101188.05;1748817;81;21074;-88
2022/06/30 12:05:32;;;;;;;6.70;3.10;;;;;;;28.79;45.47;101182.28;1752473;81;21045;-94
2022/06/30 12:08:06;;;;;;;6.80;3.55;;;;;;;28.83;45.61;101184.39;1743788;82;21063;-96
2022/06/30 12:10:32;;;;;;;4.20;2.87;;;;;;;28.65;45.47;101186.97;1725338;81;21074;-87
2022/06/30 12:13:00;;;;;;;3.83;3.30;;;;;;;28.43;45.83;101180.69;1706382;81;21704;-89
2022/06/30 12:15:27;;;;;;;4.00;2.90;;;;;;;28.50;46.18;101182.20;1752591;81;21093;-87
2022/06/30 12:17:56;;;;;;;4.00;3.47;;;;;;;28.61;46.30;101179.06;1749057;81;21074;-93
2022/06/30 12:20:41;;;;;;;5.80;3.52;;;;;;;28.75;46.76;101179.80;1749364;81;21039;-92
2022/06/30 12:23:08;;;;;;;5.50;4.05;;;;;;;28.82;47.38;101178.09;1758540;81;21101;-92
2022/06/30 12:25:35;;;;;;;5.20;3.62;;;;;;;28.87;47.83;101164.36;1758875;81;22533;-92
2022/06/30 12:28:03;;;;;;;5.85;4.25;;;;;;;28.69;48.38;101164.22;1719131;82;21153;-93
2022/06/30 12:30:37;;;;;;;6.72;3.70;;;;;;;28.41;48.78;101162.28;1730475;81;21884;-93
2022/06/30 12:33:06;;;;;;;7.05;4.20;;;;;;;28.23;49.16;101159.42;1754246;81;21090;-93
2022/06/30 12:35:36;;;;;;;5.65;4.40;;;;;;;27.94;49.68;101163.81;1758306;81;21074;-88
2022/06/30 12:38:24;;;;;;;6.60;4.47;;;;;;;27.70;50.21;101170.58;1709129;82;22596;-87
2022/06/30 12:40:54;;;;;;;6.55;4.47;;;;;;;27.54;50.74;101168.96;1733210;81;21013;-88
2022/06/30 12:43:20;;;;;;;5.20;4.17;;;;;;;27.40;51.31;101155.09;1744691;82;21079;-89
2022/06/30 12:45:55;;;;;;;7.97;4.62;;;;;;;27.27;51.66;101162.78;1736522;82;21115;-92
2022/06/30 12:48:45;;;;;;;5.78;3.98;;;;;;;27.17;52.01;101177.09;1709486;82;21742;-91
2022/06/30 12:51:35;;;;;;;5.40;4.05;;;;;;;27.18;51.92;101178.86;1719117;82;21775;-91
2022/06/30 12:54:11;;;;;;;4.90;4.10;;;;;;;27.29;51.96;101159.55;1725443;81;21070;-87
2022/06/30 12:56:39;;;;;;;6.90;3.85;;;;;;;27.36;51.92;101162.91;1733842;82;21099;-87
2022/06/30 12:59:13;;;;;;;5.58;3.80;;;;;;;27.46;51.95;101160.25;1733071;81;21130;-88
2022/06/30 13:01:54;;;;;;;6.12;3.67;;;;;;;27.60;51.96;101157.02;1723384;81;22090;-86
2022/06/30 13:04:23;;;;;;;8.10;4.20;;;;;;;27.69;51.77;101153.95;1687851;83;21802;-87